Time;durP1;ratioP1;P1;durP2;ratioP2;P2;SDS_P1;SDS_P2;PMS_P1;PMS_P2;Temp;Humidity;BMP_temperature;BMP_pressure;BME280_temperature;BME280_humidity;BME280_pressure;Samples;Min_cycle;Max_cycle;Signal;HPM_P1;HPM_P2
2022/03/23 00:02:13;;;;;;;61.83;34.22;;;;;;;;;;4429040;32;19996;-72
2022/03/23 00:04:39;;;;;;;;;;;;;;;;;;4420271;32;20130;-73
2022/03/23 00:07:04;;;;;;;52.67;29.63;;;;;;;;;;4419037;32;20311;-73
2022/03/23 00:09:29;;;;;;;;;;;;;;;;;;4420970;32;20037;-73
2022/03/23 00:11:54;;;;;;;54.92;32.95;;;;;;;;;;4418714;32;20105;-74
2022/03/23 00:14:19;;;;;;;;;;;;;;;;;;4421548;32;20536;-74
2022/03/23 00:16:45;;;;;;;47.08;30.88;;;;;;;;;;4429561;32;19943;-73
2022/03/23 00:19:10;;;;;;;;;;;;;;;;;;4426770;32;20066;-73
2022/03/23 00:21:36;;;;;;;53.15;32.58;;;;;;;;;;4418731;32;19937;-73
2022/03/23 00:24:01;;;;;;;;;;;;;;;;;;4420106;32;20413;-73
2022/03/23 00:26:26;;;;;;;50.95;31.37;;;;;;;;;;4419254;32;19937;-73
2022/03/23 00:28:51;;;;;;;;;;;;;;;;;;4422533;32;20407;-73
2022/03/23 00:31:18;;;;;;;51.75;31.98;;;;;;;;;;4419554;32;19937;-73
2022/03/23 00:33:44;;;;;;;51.28;30.90;;;;;;;;;;4423338;32;20515;-74
2022/03/23 00:36:09;;;;;;;;;;;;;;;;;;4437354;32;20026;-73
2022/03/23 00:38:34;;;;;;;49.80;30.60;;;;;;;;;;4435628;32;19937;-73
2022/03/23 00:41:00;;;;;;;;;;;;;;;;;;4425092;32;20158;-73
2022/03/23 00:43:25;;;;;;;43.97;27.13;;;;;;;;;;4422816;32;19943;-73
2022/03/23 00:45:50;;;;;;;;;;;;;;;;;;4432361;32;20418;-73
2022/03/23 00:48:15;;;;;;;48.75;29.70;;;;;;;;;;4426335;32;19941;-73
2022/03/23 00:50:40;;;;;;;;;;;;;;;;;;4430332;32;20068;-73
2022/03/23 00:53:06;;;;;;;49.47;27.10;;;;;;;;;;4434891;32;19984;-73
2022/03/23 00:55:32;;;;;;;;;;;;;;;;;;4431666;32;20033;-73
2022/03/23 00:57:57;;;;;;;49.22;27.77;;;;;;;;;;4427859;32;19967;-73
2022/03/23 01:00:22;;;;;;;;;;;;;;;;;;4435501;32;20084;-74
2022/03/23 01:02:48;;;;;;;50.05;28.08;;;;;;;;;;4423946;32;19938;-73
2022/03/23 01:05:13;;;;;;;;;;;;;;;;;;4431280;32;20052;-73
2022/03/23 01:07:39;;;;;;;43.13;27.45;;;;;;;;;;4420061;32;19945;-73
2022/03/23 01:10:04;;;;;;;;;;;;;;;;;;4419741;32;20415;-74
2022/03/23 01:12:29;;;;;;;44.42;27.48;;;;;;;;;;4420590;32;19956;-73
2022/03/23 01:14:55;;;;;;;;;;;;;;;;;;4422103;32;20074;-73
2022/03/23 01:17:20;;;;;;;49.50;30.08;;;;;;;;;;4420029;32;19937;-73
2022/03/23 01:19:45;;;;;;;;;;;;;;;;;;4421309;32;20078;-73
2022/03/23 01:22:10;;;;;;;50.75;29.63;;;;;;;;;;4436476;32;19933;-73
2022/03/23 01:24:35;;;;;;;;;;;;;;;;;;4435659;32;20042;-73
2022/03/23 01:27:02;;;;;;;46.80;29.65;;;;;;;;;;4435727;32;19952;-73
2022/03/23 01:29:27;;;;;;;51.17;28.70;;;;;;;;;;4419968;32;20364;-72
2022/03/23 01:31:52;;;;;;;;;;;;;;;;;;4426309;32;20080;-72
2022/03/23 01:34:18;;;;;;;47.33;29.05;;;;;;;;;;4422456;32;19941;-73
2022/03/23 01:36:43;;;;;;;;;;;;;;;;;;4437480;32;20411;-73
2022/03/23 01:39:08;;;;;;;47.42;29.02;;;;;;;;;;4427037;26;19975;-78
2022/03/23 01:41:33;;;;;;;;;;;;;;;;;;4405242;32;20069;-78
2022/03/23 01:43:58;;;;;;;49.53;27.10;;;;;;;;;;4415771;32;19937;-78
2022/03/23 01:46:26;;;;;;;;;;;;;;;;;;4403868;32;20026;-79
2022/03/23 01:48:51;;;;;;;48.05;27.13;;;;;;;;;;4415968;32;20057;-78
2022/03/23 01:51:16;;;;;;;;;;;;;;;;;;4416038;32;20253;-78
2022/03/23 01:53:41;;;;;;;46.83;27.87;;;;;;;;;;4403910;32;19941;-78
2022/03/23 01:56:06;;;;;;;;;;;;;;;;;;4408667;32;20157;-78
2022/03/23 01:58:31;;;;;;;50.12;28.83;;;;;;;;;;4413597;32;19951;-79
2022/03/23 02:00:56;;;;;;;;;;;;;;;;;;4407371;32;20089;-79
2022/03/23 02:03:22;;;;;;;48.15;29.50;;;;;;;;;;4405236;32;19983;-78
2022/03/23 02:05:47;;;;;;;;;;;;;;;;;;4404400;32;20026;-78
2022/03/23 02:08:12;;;;;;;47.70;29.20;;;;;;;;;;4404553;32;20243;-78
2022/03/23 02:10:38;;;;;;;;;;;;;;;;;;4415751;32;20087;-78
2022/03/23 02:13:03;;;;;;;46.10;28.23;;;;;;;;;;4403945;32;20035;-78
2022/03/23 02:15:29;;;;;;;;;;;;;;;;;;4404447;32;20083;-78
2022/03/23 02:17:56;;;;;;;48.08;30.35;;;;;;;;;;4415769;32;19944;-78
2022/03/23 02:20:22;;;;;;;45.95;28.38;;;;;;;;;;4403881;32;20131;-78
2022/03/23 02:22:47;;;;;;;;;;;;;;;;;;4403908;32;20034;-79
2022/03/23 02:25:13;;;;;;;49.42;28.52;;;;;;;;;;4415404;32;20244;-78
2022/03/23 02:27:38;;;;;;;;;;;;;;;;;;4405027;32;20065;-79
2022/03/23 02:30:07;;;;;;;47.22;28.52;;;;;;;;;;4404579;32;19933;-78
2022/03/23 02:32:32;;;;;;;56.33;30.45;;;;;;;;;;4403618;32;20545;-78
2022/03/23 02:34:58;;;;;;;61.22;32.88;;;;;;;;;;4404961;32;20022;-78
2022/03/23 02:37:23;;;;;;;;;;;;;;;;;;4403471;32;20026;-78
2022/03/23 02:39:49;;;;;;;49.45;29.35;;;;;;;;;;4403081;32;19945;-79
2022/03/23 02:42:14;;;;;;;;;;;;;;;;;;4403842;32;20060;-78
2022/03/23 02:44:39;;;;;;;51.67;27.67;;;;;;;;;;4403267;32;20332;-79
2022/03/23 02:47:05;;;;;;;55.35;30.30;;;;;;;;;;4403193;32;20520;-79
2022/03/23 02:49:30;;;;;;;46.33;28.77;;;;;;;;;;4402685;32;20218;-78
2022/03/23 02:51:55;;;;;;;50.25;29.45;;;;;;;;;;4402811;32;20072;-78
2022/03/23 03:02:40;;;;;;;54.80;29.92;;;;;;;;;;4405619;32;20339;-79
2022/03/23 03:05:05;;;;;;;;;;;;;;;;;;4402717;32;20026;-79
2022/03/23 03:08:44;;;;;;;45.83;28.55;;;;;;;;;;4401642;32;19937;-78
2022/03/23 03:10:16;;;;;;;48.10;29.20;;;;;;;;;;4393218;32;20089;-78
2022/03/23 03:12:42;;;;;;;46.55;29.65;;;;;;;;;;4402315;32;20053;-79
2022/03/23 03:15:09;;;;;;;44.25;29.02;;;;;;;;;;4402635;32;20411;-78
2022/03/23 03:17:34;;;;;;;54.45;31.08;;;;;;;;;;4403512;32;20022;-78
2022/03/23 03:19:59;;;;;;;;;;;;;;;;;;4403297;32;20049;-78
2022/03/23 03:22:25;;;;;;;54.80;29.70;;;;;;;;;;4402578;32;19965;-78
2022/03/23 03:24:50;;;;;;;;;;;;;;;;;;4402542;32;20068;-78
2022/03/23 03:27:15;;;;;;;50.55;30.90;;;;;;;;;;4401516;32;20316;-78
2022/03/23 03:29:40;;;;;;;;;;;;;;;;;;4403017;32;20100;-78
2022/03/23 03:32:06;;;;;;;55.22;32.00;;;;;;;;;;4404368;32;20079;-78
2022/03/23 03:34:31;;;;;;;;;;;;;;;;;;4404853;32;20049;-78
2022/03/23 03:36:56;;;;;;;51.85;30.65;;;;;;;;;;4402542;32;19937;-78
2022/03/23 03:39:21;;;;;;;;;;;;;;;;;;4400639;32;20092;-79
2022/03/23 03:41:47;;;;;;;56.58;31.58;;;;;;;;;;4403428;32;19981;-78
2022/03/23 03:44:12;;;;;;;;;;;;;;;;;;4407131;32;20089;-78
2022/03/23 03:46:37;;;;;;;54.70;30.05;;;;;;;;;;4411548;32;19953;-78
2022/03/23 03:49:02;;;;;;;;;;;;;;;;;;4405562;32;20030;-79
2022/03/23 03:51:28;;;;;;;48.22;29.80;;;;;;;;;;4404086;32;19989;-78
2022/03/23 03:53:53;;;;;;;;;;;;;;;;;;4405615;32;20336;-78
2022/03/23 03:56:18;;;;;;;55.10;31.00;;;;;;;;;;4403335;32;19990;-79
2022/03/23 03:58:43;;;;;;;;;;;;;;;;;;4402910;32;20069;-79
2022/03/23 04:01:10;;;;;;;55.20;31.98;;;;;;;;;;4403011;32;20112;-79
2022/03/23 04:03:35;;;;;;;51.60;30.42;;;;;;;;;;4404207;32;20091;-79
2022/03/23 04:06:00;;;;;;;52.25;31.60;;;;;;;;;;4406322;32;20085;-77
2022/03/23 04:08:25;;;;;;;;;;;;;;;;;;4418034;32;20169;-78
2022/03/23 04:10:50;;;;;;;56.35;32.22;;;;;;;;;;4416430;32;19929;-77
2022/03/23 04:13:15;;;;;;;;;;;;;;;;;;4412191;32;20286;-78
2022/03/23 04:15:41;;;;;;;62.97;32.60;;;;;;;;;;4407006;32;20395;-78
2022/03/23 04:18:07;;;;;;;;;;;;;;;;;;4407747;32;20664;-79
2022/03/23 04:20:33;;;;;;;59.78;32.45;;;;;;;;;;4406141;32;19953;-79
2022/03/23 04:22:58;;;;;;;57.95;31.73;;;;;;;;;;4407606;32;20026;-79
2022/03/23 04:25:23;;;;;;;55.05;30.88;;;;;;;;;;4407436;32;20045;-78
2022/03/23 04:27:48;;;;;;;;;;;;;;;;;;4406940;32;20023;-79
2022/03/23 04:30:14;;;;;;;54.20;29.83;;;;;;;;;;4404377;32;19933;-78
2022/03/23 04:32:40;;;;;;;;;;;;;;;;;;4402918;32;20137;-78
2022/03/23 04:35:05;;;;;;;46.20;29.35;;;;;;;;;;4402032;32;19992;-79
2022/03/23 04:37:30;;;;;;;;;;;;;;;;;;4402088;32;20184;-78
2022/03/23 04:39:55;;;;;;;46.28;28.30;;;;;;;;;;4401066;32;19947;-78
2022/03/23 04:42:20;;;;;;;;;;;;;;;;;;4401471;32;20318;-78
2022/03/23 04:44:45;;;;;;;48.03;29.55;;;;;;;;;;4400665;32;19941;-78
2022/03/23 04:47:11;;;;;;;;;;;;;;;;;;4402156;32;20105;-77
2022/03/23 04:49:36;;;;;;;48.65;30.02;;;;;;;;;;4401185;32;20069;-78
2022/03/23 04:52:01;;;;;;;;;;;;;;;;;;4399819;32;20086;-78
2022/03/23 04:54:26;;;;;;;56.65;30.60;;;;;;;;;;4401085;32;20292;-78
2022/03/23 04:56:51;;;;;;;;;;;;;;;;;;4401150;32;20046;-78
2022/03/23 04:59:16;;;;;;;52.33;28.73;;;;;;;;;;4401188;32;19990;-78
2022/03/23 05:01:41;;;;;;;;;;;;;;;;;;4400637;32;20060;-78
2022/03/23 05:04:07;;;;;;;54.90;33.55;;;;;;;;;;4407862;32;19938;-78
2022/03/23 05:06:32;;;;;;;;;;;;;;;;;;4401610;32;20114;-78
2022/03/23 05:08:57;;;;;;;53.13;31.70;;;;;;;;;;4401624;32;19988;-78
2022/03/23 05:11:23;;;;;;;;;;;;;;;;;;4400561;32;20077;-78
2022/03/23 05:13:49;;;;;;;58.50;30.00;;;;;;;;;;4400476;32;19956;-78
2022/03/23 05:16:14;;;;;;;58.13;31.05;;;;;;;;;;4402987;32;20385;-78
2022/03/23 05:18:40;;;;;;;60.88;31.10;;;;;;;;;;4402428;32;20021;-78
2022/03/23 05:21:06;;;;;;;;;;;;;;;;;;4403839;32;20099;-79
2022/03/23 05:23:32;;;;;;;58.05;31.35;;;;;;;;;;4402738;32;19944;-79
2022/03/23 05:25:57;;;;;;;;;;;;;;;;;;4404309;32;20130;-78
2022/03/23 05:28:22;;;;;;;59.30;32.85;;;;;;;;;;4403972;32;20325;-78
2022/03/23 05:30:47;;;;;;;56.22;29.87;;;;;;;;;;4404297;32;20495;-78
2022/03/23 05:33:12;;;;;;;;;;;;;;;;;;4404023;32;20030;-78
2022/03/23 05:35:37;;;;;;;54.20;29.02;;;;;;;;;;4402516;32;19983;-78
2022/03/23 05:38:03;;;;;;;;;;;;;;;;;;4404346;32;20075;-78
2022/03/23 05:40:28;;;;;;;48.08;28.27;;;;;;;;;;4403492;32;19944;-78
2022/03/23 05:42:53;;;;;;;;;;;;;;;;;;4403515;32;20042;-78
2022/03/23 05:45:18;;;;;;;57.55;29.00;;;;;;;;;;4403187;32;19949;-78
2022/03/23 05:47:43;;;;;;;;;;;;;;;;;;4405628;32;20022;-78
2022/03/23 05:50:09;;;;;;;60.50;30.98;;;;;;;;;;4402182;32;19937;-78
2022/03/23 05:52:34;;;;;;;;;;;;;;;;;;4403263;32;20280;-78
2022/03/23 05:55:01;;;;;;;53.78;29.17;;;;;;;;;;4403664;32;19941;-78
2022/03/23 05:57:26;;;;;;;59.03;30.10;;;;;;;;;;4403920;32;20327;-78
2022/03/23 05:59:51;;;;;;;44.08;27.95;;;;;;;;;;4401909;32;20111;-78
2022/03/23 06:02:16;;;;;;;;;;;;;;;;;;4404217;32;20409;-78
2022/03/23 06:04:41;;;;;;;54.25;29.58;;;;;;;;;;4402347;32;19964;-78
2022/03/23 06:07:06;;;;;;;;;;;;;;;;;;4402814;32;20062;-78
2022/03/23 06:09:32;;;;;;;48.65;30.48;;;;;;;;;;4401736;32;19971;-78
2022/03/23 06:11:57;;;;;;;;;;;;;;;;;;4403168;32;20066;-79
2022/03/23 06:14:22;;;;;;;48.17;27.65;;;;;;;;;;4397133;32;19987;-78
2022/03/23 06:16:47;;;;;;;;;;;;;;;;;;4402880;32;20381;-77
2022/03/23 06:19:13;;;;;;;50.85;30.42;;;;;;;;;;4410874;32;20041;-77
2022/03/23 06:21:38;;;;;;;;;;;;;;;;;;4420727;32;20030;-77
2022/03/23 06:24:04;;;;;;;49.22;28.90;;;;;;;;;;4408228;32;19942;-77
2022/03/23 06:26:29;;;;;;;;;;;;;;;;;;4394418;32;20202;-77
2022/03/23 06:28:54;;;;;;;51.13;29.00;;;;;;;;;;4397935;32;19979;-77
2022/03/23 06:31:20;;;;;;;;;;;;;;;;;;4413400;32;20080;-77
2022/03/23 06:33:46;;;;;;;53.05;27.48;;;;;;;;;;4399331;32;20315;-78
2022/03/23 06:36:11;;;;;;;52.88;29.45;;;;;;;;;;4406981;32;20030;-77
2022/03/23 06:38:36;;;;;;;44.08;27.24;;;;;;;;;;4408047;32;20043;-76
2022/03/23 06:41:01;;;;;;;;;;;;;;;;;;4395593;32;20148;-77
2022/03/23 06:43:26;;;;;;;56.20;30.15;;;;;;;;;;4392164;32;19983;-77
2022/03/23 06:45:52;;;;;;;;;;;;;;;;;;4392674;32;20138;-77
2022/03/23 06:48:17;;;;;;;49.55;29.70;;;;;;;;;;4395164;32;19957;-77
2022/03/23 06:50:42;;;;;;;49.13;28.30;;;;;;;;;;4395564;32;20119;-77
2022/03/23 06:53:07;;;;;;;;;;;;;;;;;;4394583;32;20196;-78
2022/03/23 06:55:32;;;;;;;66.60;30.27;;;;;;;;;;4403520;32;19955;-77
2022/03/23 06:57:58;;;;;;;;;;;;;;;;;;4402951;32;20030;-76
2022/03/23 07:00:23;;;;;;;51.75;28.87;;;;;;;;;;4403816;32;19948;-76
2022/03/23 07:02:48;;;;;;;;;;;;;;;;;;4400803;32;20485;-75
2022/03/23 07:05:14;;;;;;;44.28;26.83;;;;;;;;;;4402277;32;19978;-76
2022/03/23 07:09:31;;;;;;;43.75;28.33;;;;;;;;;;4403541;32;20035;-76
2022/03/23 07:10:28;;;;;;;55.53;28.45;;;;;;;;;;4402192;32;20116;-77
2022/03/23 07:12:53;;;;;;;;;;;;;;;;;;4402660;32;20035;-77
2022/03/23 07:15:18;;;;;;;56.67;27.83;;;;;;;;;;4400463;32;19968;-76
2022/03/23 07:17:43;;;;;;;;;;;;;;;;;;4404190;32;20022;-75
2022/03/23 07:20:09;;;;;;;52.03;27.42;;;;;;;;;;4403301;32;20039;-77
2022/03/23 07:22:34;;;;;;;;;;;;;;;;;;4401797;32;20050;-76
2022/03/23 07:25:00;;;;;;;50.05;26.73;;;;;;;;;;4404824;32;20325;-76
2022/03/23 07:27:25;;;;;;;;;;;;;;;;;;4402447;32;20097;-76
2022/03/23 07:29:50;;;;;;;52.85;27.52;;;;;;;;;;4404210;32;20015;-75
2022/03/23 07:32:15;;;;;;;;;;;;;;;;;;4402857;32;20034;-75
2022/03/23 07:34:41;;;;;;;41.33;25.15;;;;;;;;;;4405960;32;19987;-76
2022/03/23 07:37:06;;;;;;;;;;;;;;;;;;4402482;32;20161;-77
2022/03/23 07:39:31;;;;;;;48.70;26.67;;;;;;;;;;4401864;32;19937;-76
2022/03/23 07:41:56;;;;;;;;;;;;;;;;;;4403938;32;20211;-76
2022/03/23 07:44:21;;;;;;;44.65;26.35;;;;;;;;;;4402310;32;20086;-76
2022/03/23 07:46:47;;;;;;;;;;;;;;;;;;4404783;32;20126;-76
2022/03/23 07:49:13;;;;;;;44.95;24.52;;;;;;;;;;4402614;32;19944;-77
2022/03/23 07:51:39;;;;;;;48.05;26.15;;;;;;;;;;4403228;32;20030;-77
2022/03/23 07:54:04;;;;;;;;;;;;;;;;;;4403244;32;20401;-76
2022/03/23 07:56:29;;;;;;;45.78;25.35;;;;;;;;;;4400865;32;20377;-77
2022/03/23 07:58:54;;;;;;;;;;;;;;;;;;4414829;32;20027;-77
2022/03/23 08:01:19;;;;;;;49.55;25.30;;;;;;;;;;4415316;32;19953;-77
2022/03/23 08:03:45;;;;;;;;;;;;;;;;;;4404077;32;20569;-77
2022/03/23 08:06:10;;;;;;;51.20;25.20;;;;;;;;;;4403057;32;20010;-77
2022/03/23 08:08:35;;;;;;;;;;;;;;;;;;4402811;32;20018;-77
2022/03/23 08:11:00;;;;;;;48.00;26.80;;;;;;;;;;4403773;32;19944;-77
2022/03/23 08:13:25;;;;;;;;;;;;;;;;;;4402682;32;20442;-76
2022/03/23 08:15:50;;;;;;;41.37;25.60;;;;;;;;;;4404838;32;20039;-76
2022/03/23 08:18:17;;;;;;;;;;;;;;;;;;4402543;32;20371;-76
2022/03/23 08:20:42;;;;;;;68.15;27.30;;;;;;;;;;4401771;32;19976;-76
2022/03/23 08:23:08;;;;;;;;;;;;;;;;;;4402683;32;20023;-76
2022/03/23 08:25:33;;;;;;;39.33;25.13;;;;;;;;;;4404855;32;19965;-77
2022/03/23 08:27:59;;;;;;;;;;;;;;;;;;4402647;32;20122;-76
2022/03/23 08:30:24;;;;;;;35.97;23.58;;;;;;;;;;4403467;32;19937;-76
2022/03/23 08:32:49;;;;;;;;;;;;;;;;;;4414468;32;20317;-76
2022/03/23 08:35:15;;;;;;;45.25;25.92;;;;;;;;;;4413658;32;19945;-78
2022/03/23 08:37:41;;;;;;;;;;;;;;;;;;4408106;32;20119;-78
2022/03/23 08:40:06;;;;;;;41.88;23.62;;;;;;;;;;4404867;32;19946;-77
2022/03/23 08:42:31;;;;;;;;;;;;;;;;;;4405382;32;20022;-78
2022/03/23 08:44:58;;;;;;;42.40;23.73;;;;;;;;;;4390886;32;19942;-78
2022/03/23 08:47:23;;;;;;;44.47;26.10;;;;;;;;;;4388795;32;20057;-78
2022/03/23 08:49:48;;;;;;;;;;;;;;;;;;4400647;32;20034;-78
2022/03/23 08:52:13;;;;;;;50.80;25.65;;;;;;;;;;4417771;32;19949;-77
2022/03/23 08:54:38;;;;;;;;;;;;;;;;;;4407001;32;20053;-76
2022/03/23 08:57:04;;;;;;;50.83;27.15;;;;;;;;;;4410800;32;20353;-77
2022/03/23 08:59:30;;;;;;;;;;;;;;;;;;4389888;32;20192;-78
2022/03/23 09:01:55;;;;;;;41.08;25.05;;;;;;;;;;4390381;32;19938;-77
2022/03/23 09:04:20;;;;;;;;;;;;;;;;;;4391450;32;20045;-77
2022/03/23 09:06:45;;;;;;;45.20;25.92;;;;;;;;;;4390494;32;20315;-77
2022/03/23 09:09:10;;;;;;;;;;;;;;;;;;4390481;32;20049;-77
2022/03/23 09:11:36;;;;;;;41.47;25.50;;;;;;;;;;4390000;32;19949;-77
2022/03/23 09:14:01;;;;;;;;;;;;;;;;;;4391844;32;20299;-77
2022/03/23 09:16:26;;;;;;;39.10;26.27;;;;;;;;;;4398594;32;19938;-77
2022/03/23 09:18:52;;;;;;;;;;;;;;;;;;4408165;32;20200;-76
2022/03/23 09:21:19;;;;;;;46.40;25.42;;;;;;;;;;4405984;32;20007;-77
2022/03/23 09:23:44;;;;;;;40.12;25.70;;;;;;;;;;4391927;32;20181;-77
2022/03/23 09:26:10;;;;;;;43.08;26.90;;;;;;;;;;4390242;32;20039;-76
2022/03/23 09:28:35;;;;;;;37.50;25.62;;;;;;;;;;4392752;32;20030;-78
2022/03/23 09:31:01;;;;;;;45.70;27.42;;;;;;;;;;4404321;32;20086;-76
2022/03/23 09:33:28;;;;;;;;;;;;;;;;;;4390658;32;20398;-76
2022/03/23 09:35:53;;;;;;;45.45;26.10;;;;;;;;;;4392135;32;19942;-77
2022/03/23 09:38:18;;;;;;;;;;;;;;;;;;4391056;32;20049;-77
2022/03/23 09:40:45;;;;;;;43.13;26.05;;;;;;;;;;4391243;32;19956;-77
2022/03/23 09:43:11;;;;;;;38.20;24.20;;;;;;;;;;4392978;32;20433;-77
2022/03/23 09:48:11;;;;;;;50.58;27.42;;;;;;;;;;4391802;32;20082;-76
2022/03/23 09:50:41;;;;;;;38.63;26.12;;;;;;;;;;4389388;32;20018;-77
2022/03/23 09:53:07;;;;;;;40.70;27.23;;;;;;;;;;4388675;32;20058;-77
2022/03/23 09:55:32;;;;;;;45.97;26.92;;;;;;;;;;4389267;32;20080;-77
2022/03/23 09:58:02;;;;;;;44.42;28.55;;;;;;;;;;4376327;32;20062;-78
2022/03/23 10:00:32;;;;;;;46.13;27.85;;;;;;;;;;4389252;32;20030;-77
2022/03/23 10:02:57;;;;;;;50.33;27.27;;;;;;;;;;4403139;32;20046;-77
2022/03/23 10:05:42;;;;;;;43.92;27.48;;;;;;;;;;4391935;32;20049;-76
2022/03/23 10:08:20;;;;;;;48.72;27.92;;;;;;;;;;4398538;32;20470;-77
2022/03/23 10:11:04;;;;;;;45.25;27.08;;;;;;;;;;4404448;32;20046;-78
2022/03/23 10:13:48;;;;;;;42.58;27.33;;;;;;;;;;4402671;32;20373;-77
2022/03/23 10:16:32;;;;;;;52.60;29.30;;;;;;;;;;4390164;32;20038;-78
2022/03/23 10:18:57;;;;;;;42.90;26.60;;;;;;;;;;4388661;32;20027;-77
2022/03/23 10:21:26;;;;;;;44.70;29.80;;;;;;;;;;4389080;32;20038;-77
2022/03/23 10:23:57;;;;;;;40.10;28.42;;;;;;;;;;4389228;32;20031;-77
2022/03/23 10:26:23;;;;;;;49.47;29.10;;;;;;;;;;4388875;32;20101;-78
2022/03/23 10:28:48;;;;;;;43.83;27.40;;;;;;;;;;4394812;32;20089;-78
2022/03/23 10:31:17;;;;;;;37.70;26.40;;;;;;;;;;4405364;32;20022;-77
2022/03/23 10:33:43;;;;;;;48.17;29.42;;;;;;;;;;4405390;32;20019;-76
2022/03/23 10:36:08;;;;;;;46.90;28.40;;;;;;;;;;4406818;32;20138;-77
2022/03/23 10:38:37;;;;;;;46.92;27.75;;;;;;;;;;4406894;32;20157;-77
2022/03/23 10:41:09;;;;;;;42.45;28.10;;;;;;;;;;4408559;32;20019;-78
2022/03/23 10:43:36;;;;;;;44.05;27.73;;;;;;;;;;4411739;32;20186;-79
2022/03/23 10:46:11;;;;;;;47.95;27.60;;;;;;;;;;4418594;32;20027;-77
2022/03/23 10:48:37;;;;;;;41.33;27.95;;;;;;;;;;4413566;32;20022;-77
2022/03/23 10:51:03;;;;;;;42.75;30.55;;;;;;;;;;4410614;32;20346;-77
2022/03/23 10:53:28;;;;;;;;;;;;;;;;;;4405111;32;20092;-77
2022/03/23 10:55:53;;;;;;;47.25;28.83;;;;;;;;;;4402292;32;20033;-79
2022/03/23 10:58:20;;;;;;;44.58;27.75;;;;;;;;;;4388511;32;20088;-78
2022/03/23 11:00:45;;;;;;;45.20;30.20;;;;;;;;;;4389191;32;20035;-77
2022/03/23 11:03:10;;;;;;;44.90;29.87;;;;;;;;;;4387687;32;20022;-77
2022/03/23 11:05:38;;;;;;;45.33;28.48;;;;;;;;;;4388356;32;20433;-78
2022/03/23 11:08:13;;;;;;;41.80;28.52;;;;;;;;;;4388289;32;20061;-77
2022/03/23 11:16:13;;;;;;;43.78;28.38;;;;;;;;;;4390344;32;20044;-76
2022/03/23 11:18:40;;;;;;;38.50;27.33;;;;;;;;;;4390143;32;20122;-78
2022/03/23 11:21:06;;;;;;;45.00;28.92;;;;;;;;;;4391059;32;20424;-78
2022/03/23 11:23:33;;;;;;;45.25;28.90;;;;;;;;;;4393041;32;20026;-78
2022/03/23 11:26:01;;;;;;;43.63;29.48;;;;;;;;;;4390195;32;20027;-76
2022/03/23 11:28:28;;;;;;;44.70;30.30;;;;;;;;;;4393129;32;20039;-77
2022/03/23 11:30:54;;;;;;;45.70;28.52;;;;;;;;;;4398205;32;20149;-76
2022/03/23 11:33:21;;;;;;;44.50;30.62;;;;;;;;;;4401811;32;20077;-77
2022/03/23 11:35:48;;;;;;;45.12;30.52;;;;;;;;;;4403343;32;20177;-78
2022/03/23 11:38:14;;;;;;;42.38;30.85;;;;;;;;;;4401093;32;20023;-77
2022/03/23 11:40:40;;;;;;;50.72;31.58;;;;;;;;;;4402354;32;20069;-77
2022/03/23 11:43:06;;;;;;;46.75;30.23;;;;;;;;;;4403051;32;20026;-76
2022/03/23 11:45:31;;;;;;;44.00;31.30;;;;;;;;;;4415046;32;20104;-78
2022/03/23 11:48:01;;;;;;;57.33;32.53;;;;;;;;;;4402920;32;20049;-74
2022/03/23 11:50:26;;;;;;;46.25;30.62;;;;;;;;;;4398177;32;20049;-77
2022/03/23 11:52:58;;;;;;;43.38;29.70;;;;;;;;;;4389647;32;20034;-76
2022/03/23 11:55:42;;;;;;;42.42;31.48;;;;;;;;;;4389434;32;20027;-77
2022/03/23 11:58:29;;;;;;;43.53;32.47;;;;;;;;;;4390657;32;20026;-77
2022/03/23 12:00:55;;;;;;;49.35;32.10;;;;;;;;;;4389429;32;20023;-77
2022/03/23 12:03:39;;;;;;;39.78;30.37;;;;;;;;;;4403813;32;20385;-76
2022/03/23 12:06:09;;;;;;;45.15;32.33;;;;;;;;;;4405187;32;20065;-77
2022/03/23 12:08:43;;;;;;;40.92;29.40;;;;;;;;;;4404473;32;20406;-76
2022/03/23 12:11:27;;;;;;;46.08;30.92;;;;;;;;;;4405494;32;20049;-77
2022/03/23 12:13:59;;;;;;;46.15;33.58;;;;;;;;;;4405143;32;20030;-77
2022/03/23 12:16:42;;;;;;;45.72;32.70;;;;;;;;;;4396157;32;20393;-76
2022/03/23 12:19:10;;;;;;;43.17;31.77;;;;;;;;;;4387761;32;20100;-77
2022/03/23 12:21:43;;;;;;;44.47;32.47;;;;;;;;;;4387514;32;20046;-77
2022/03/23 12:24:11;;;;;;;39.63;30.67;;;;;;;;;;4407654;32;20069;-76
2022/03/23 12:26:39;;;;;;;50.90;33.38;;;;;;;;;;4401765;32;20068;-77
2022/03/23 12:29:07;;;;;;;44.95;32.95;;;;;;;;;;4402216;32;20097;-76
2022/03/23 12:31:37;;;;;;;43.72;33.33;;;;;;;;;;4402174;32;20018;-77
2022/03/23 12:34:07;;;;;;;41.92;31.77;;;;;;;;;;4394139;32;20314;-77
2022/03/23 12:39:25;;;;;;;43.28;33.13;;;;;;;;;;4407921;32;20438;-77
2022/03/23 12:41:50;;;;;;;41.65;31.23;;;;;;;;;;4406306;32;20058;-76
2022/03/23 12:44:15;;;;;;;47.05;32.95;;;;;;;;;;4401996;32;20129;-76
2022/03/23 12:46:47;;;;;;;44.90;33.50;;;;;;;;;;4403329;32;20023;-77
2022/03/23 13:00:25;;;;;;;36.05;29.15;;;;;;;;;;4395049;32;20045;-78
2022/03/23 13:03:05;;;;;;;39.83;30.10;;;;;;;;;;4387647;32;20035;-78
2022/03/23 13:05:31;;;;;;;36.25;29.23;;;;;;;;;;4388287;32;20114;-78
2022/03/23 13:07:57;;;;;;;39.63;31.20;;;;;;;;;;4386961;32;20054;-76
2022/03/23 13:10:24;;;;;;;41.22;29.77;;;;;;;;;;4389360;32;20430;-76
2022/03/23 13:12:50;;;;;;;51.42;32.05;;;;;;;;;;4388926;32;20031;-77
2022/03/23 13:15:17;;;;;;;44.75;30.12;;;;;;;;;;4390495;32;20030;-76
2022/03/23 13:17:43;;;;;;;39.90;29.92;;;;;;;;;;4389530;32;20027;-78
2022/03/23 13:20:09;;;;;;;44.22;30.37;;;;;;;;;;4387448;32;20089;-76
2022/03/23 13:22:38;;;;;;;41.35;29.48;;;;;;;;;;4386655;32;20106;-77
2022/03/23 13:25:03;;;;;;;37.90;31.23;;;;;;;;;;4387225;32;20084;-77
2022/03/23 13:27:29;;;;;;;43.70;30.55;;;;;;;;;;4389514;32;20031;-78
2022/03/23 13:30:00;;;;;;;38.13;30.52;;;;;;;;;;4387280;32;20099;-77
2022/03/23 13:32:33;;;;;;;39.38;30.98;;;;;;;;;;4388425;32;20200;-78
2022/03/23 13:34:59;;;;;;;40.70;28.95;;;;;;;;;;4390572;32;20035;-78
2022/03/23 13:37:24;;;;;;;36.47;29.42;;;;;;;;;;4393122;32;20050;-78
2022/03/23 13:39:49;;;;;;;39.50;30.77;;;;;;;;;;4396469;32;20057;-78
2022/03/23 13:45:05;;;;;;;39.55;28.45;;;;;;;;;;4409798;32;20041;-77
2022/03/23 13:47:34;;;;;;;36.97;27.95;;;;;;;;;;4407980;32;20039;-77
2022/03/23 13:50:00;;;;;;;36.85;28.73;;;;;;;;;;4407011;32;20066;-77
2022/03/23 13:52:26;;;;;;;34.53;29.10;;;;;;;;;;4406568;32;20049;-77
2022/03/23 13:54:52;;;;;;;37.25;28.65;;;;;;;;;;4406988;32;20042;-78
2022/03/23 13:57:18;;;;;;;37.83;29.73;;;;;;;;;;4405528;32;20062;-78
2022/03/23 13:59:46;;;;;;;62.17;35.70;;;;;;;;;;4391885;32;20475;-77
2022/03/23 14:02:13;;;;;;;38.60;30.27;;;;;;;;;;4404594;32;20054;-76
2022/03/23 14:04:38;;;;;;;41.42;30.02;;;;;;;;;;4406257;32;20089;-78
2022/03/23 14:07:04;;;;;;;40.63;29.55;;;;;;;;;;4406847;32;20031;-78
2022/03/23 14:09:30;;;;;;;43.92;33.10;;;;;;;;;;4405518;32;20087;-77
2022/03/23 14:12:04;;;;;;;40.58;30.15;;;;;;;;;;4407146;32;20381;-78
2022/03/23 14:14:34;;;;;;;39.53;30.50;;;;;;;;;;4404725;32;20034;-77
2022/03/23 14:17:08;;;;;;;34.55;27.45;;;;;;;;;;4405110;32;20064;-78
2022/03/23 14:19:34;;;;;;;36.13;28.38;;;;;;;;;;4396752;32;20030;-78
2022/03/23 14:22:01;;;;;;;37.15;30.15;;;;;;;;;;4389570;32;20064;-76
2022/03/23 14:24:34;;;;;;;34.80;29.20;;;;;;;;;;4379837;32;20023;-77
2022/03/23 14:27:15;;;;;;;34.83;27.40;;;;;;;;;;4398674;32;20057;-77
2022/03/23 14:29:42;;;;;;;36.50;26.02;;;;;;;;;;4402867;32;20448;-77
2022/03/23 14:32:09;;;;;;;49.55;33.00;;;;;;;;;;4393209;32;20022;-77
2022/03/23 14:34:36;;;;;;;32.85;25.25;;;;;;;;;;4388764;32;20031;-77
2022/03/23 14:37:06;;;;;;;35.42;27.27;;;;;;;;;;4389583;32;20019;-77
2022/03/23 14:39:38;;;;;;;34.83;26.70;;;;;;;;;;4390561;32;20041;-77
2022/03/23 14:42:06;;;;;;;38.90;27.48;;;;;;;;;;4392200;32;20365;-77
2022/03/23 14:44:34;;;;;;;35.55;27.02;;;;;;;;;;4377740;32;20059;-78
2022/03/23 14:46:59;;;;;;;34.90;27.42;;;;;;;;;;4392935;32;20031;-77
2022/03/23 14:49:32;;;;;;;34.13;27.13;;;;;;;;;;4391294;32;20022;-76
2022/03/23 14:51:57;;;;;;;30.10;24.63;;;;;;;;;;4406671;32;20107;-77
2022/03/23 14:54:22;;;;;;;30.92;25.80;;;;;;;;;;4407529;32;20150;-77
2022/03/23 14:56:49;;;;;;;33.80;25.23;;;;;;;;;;4404696;32;20062;-77
2022/03/23 14:59:14;;;;;;;38.58;24.27;;;;;;;;;;4402948;32;20497;-75
2022/03/23 15:01:39;;;;;;;30.30;25.20;;;;;;;;;;4402933;32;20088;-76
2022/03/23 15:04:05;;;;;;;30.98;25.58;;;;;;;;;;4403662;32;20170;-77
2022/03/23 15:14:42;;;;;;;32.33;23.65;;;;;;;;;;4394793;32;20071;-79
2022/03/23 15:17:07;;;;;;;36.33;24.83;;;;;;;;;;4401824;32;20070;-78
2022/03/23 15:19:32;;;;;;;34.20;21.40;;;;;;;;;;4389595;32;20136;-78
2022/03/23 15:21:57;;;;;;;28.90;21.80;;;;;;;;;;4389610;32;20050;-76
2022/03/23 15:24:23;;;;;;;30.80;23.52;;;;;;;;;;4389452;32;20360;-76
2022/03/23 15:26:50;;;;;;;32.88;22.83;;;;;;;;;;4389892;32;20035;-78
2022/03/23 15:29:16;;;;;;;35.25;24.35;;;;;;;;;;4388471;32;20504;-78
2022/03/23 15:31:41;;;;;;;34.20;25.58;;;;;;;;;;4388418;32;20057;-75